Hlavní strana
METAR-TAF:

METAR-TAF

Letiště :

Logan County Airport

Lincoln, Illinois, Spojené státy americké

zeměpisná šířka: 40-09-31N, zeměpisná délka: 089-20-06W, výška: 182 m

Aktuální stav počasí

Zpráva byla vytvořena před 22 minutami, v 08:15 UTC
Jižní vítr 6 kt
Teplota 1°C
Vlhkost vzduchu 93%
Tlak 1019 hPa
Viditelnost: 11.3 km
Polojasno ve výšce 1100 ft

METAR: KAAA 080815Z AUTO 17006KT 7SM SCT011 01/00 A3010 RMK AO2 T00120002

Čas: 02:37 (08:37 UTC)


TAF: chybějící

Stav a předpovědi počasí z více než 4 000 letišť (zprávy METAR a TAF).

Červené a žluté tečky na mapě představují dostupné meteorologické stanice.

Když kurzor umístíte na tečku, zobrazí se název stanice.

Pak kliknutím zobrazíte stav a předpověď počasí.

Chcete-li změnit mapu, kliknutím na zelené tlačítko se znaménkem +mapu přiblížíte, kliknutím na zelené tlačítko se znaménkem – mapu oddálíte a kliknutím na zelené šipky přejdete na sousední mapy.


METAR-TAF: